Time;durP1;ratioP1;P1;durP2;ratioP2;P2;SDS_P1;SDS_P2;PMS_P1;PMS_P2;Temp;Humidity;BMP_temperature;BMP_pressure;BME280_temperature;BME280_humidity;BME280_pressure;Samples;Min_cycle;Max_cycle;Signal;HPM_P1;HPM_P2
2023/07/15 00:00:13;;;;;;;2.08;1.40;;;;;;;;;;5108336;28;20039;-65
2023/07/15 00:02:40;;;;;;;3.17;1.83;;;;;;;;;;5084060;28;20040;-66
2023/07/15 00:05:15;;;;;;;2.85;1.60;;;;;;;;;;5050751;28;20127;-65
2023/07/15 00:07:40;;;;;;;2.45;1.60;;;;;;;;;;5033497;28;20041;-65
2023/07/15 00:10:06;;;;;;;2.33;1.58;;;;;;;;;;5049637;28;20044;-65
2023/07/15 00:12:33;;;;;;;3.17;1.70;;;;;;;;;;5067827;28;20049;-65
2023/07/15 00:14:58;;;;;;;2.58;1.58;;;;;;;;;;5067949;28;20059;-65
2023/07/15 00:17:24;;;;;;;3.78;2.20;;;;;;;;;;5049820;28;20478;-68
2023/07/15 00:19:49;;;;;;;2.95;1.48;;;;;;;;;;5067777;28;20059;-65
2023/07/15 00:22:14;;;;;;;3.00;1.85;;;;;;;;;;5049408;28;20380;-66
2023/07/15 00:24:39;;;;;;;2.63;1.48;;;;;;;;;;5050203;28;20049;-67
2023/07/15 00:27:05;;;;;;;1.80;1.42;;;;;;;;;;5049208;28;20051;-66
2023/07/15 00:29:30;;;;;;;3.28;1.27;;;;;;;;;;5067954;28;20887;-68
2023/07/15 00:31:57;;;;;;;2.38;1.45;;;;;;;;;;5067621;28;20605;-67
2023/07/15 00:34:22;;;;;;;2.60;1.40;;;;;;;;;;5049155;28;20051;-67
2023/07/15 00:36:47;;;;;;;3.55;1.52;;;;;;;;;;5067212;28;20036;-67
2023/07/15 00:39:13;;;;;;;2.45;1.75;;;;;;;;;;5066885;28;20410;-68
2023/07/15 00:41:38;;;;;;;2.55;1.45;;;;;;;;;;5067605;28;20099;-65
2023/07/15 00:44:05;;;;;;;2.47;1.40;;;;;;;;;;5049038;28;20467;-69
2023/07/15 00:46:36;;;;;;;2.78;1.67;;;;;;;;;;5067333;28;20127;-67
2023/07/15 00:49:31;;;;;;;2.55;1.05;;;;;;;;;;5066982;28;20447;-69
2023/07/15 00:52:09;;;;;;;2.35;1.58;;;;;;;;;;5047426;28;20040;-67
2023/07/15 00:54:41;;;;;;;2.08;1.50;;;;;;;;;;5067020;28;20036;-66
2023/07/15 00:57:08;;;;;;;2.63;1.50;;;;;;;;;;5049064;28;20048;-65
2023/07/15 00:59:35;;;;;;;2.63;1.30;;;;;;;;;;5049610;28;20074;-66
2023/07/15 01:02:01;;;;;;;1.85;1.30;;;;;;;;;;5067107;28;20043;-68
2023/07/15 01:04:26;;;;;;;2.80;1.52;;;;;;;;;;5067000;28;20033;-65
2023/07/15 01:06:53;;;;;;;4.22;1.63;;;;;;;;;;5067380;28;20072;-66
2023/07/15 01:09:19;;;;;;;3.35;1.42;;;;;;;;;;5066567;28;20686;-66
2023/07/15 01:11:45;;;;;;;3.47;1.90;;;;;;;;;;5066974;28;20051;-66
2023/07/15 01:14:12;;;;;;;2.30;1.33;;;;;;;;;;5048733;28;20041;-65
2023/07/15 01:16:37;;;;;;;1.77;1.58;;;;;;;;;;5067081;28;20746;-67
2023/07/15 01:19:03;;;;;;;3.72;1.50;;;;;;;;;;5066443;28;20033;-68
2023/07/15 01:21:30;;;;;;;1.45;1.20;;;;;;;;;;5066750;28;20040;-65
2023/07/15 01:23:55;;;;;;;2.40;1.30;;;;;;;;;;5048612;28;20063;-68
2023/07/15 01:26:20;;;;;;;2.47;1.27;;;;;;;;;;5065977;28;20503;-67
2023/07/15 01:28:45;;;;;;;3.03;1.63;;;;;;;;;;5066995;28;20040;-67
2023/07/15 01:31:13;;;;;;;2.25;1.42;;;;;;;;;;5066363;28;20139;-66
2023/07/15 01:33:38;;;;;;;4.50;1.40;;;;;;;;;;5048961;28;20280;-66
2023/07/15 01:36:04;;;;;;;1.42;1.27;;;;;;;;;;5066398;28;20886;-69
2023/07/15 01:38:30;;;;;;;1.85;1.30;;;;;;;;;;5067036;28;20033;-66
2023/07/15 01:40:55;;;;;;;2.17;1.30;;;;;;;;;;5066722;28;20066;-67
2023/07/15 01:43:21;;;;;;;1.95;1.40;;;;;;;;;;5066109;28;20045;-68
2023/07/15 01:45:46;;;;;;;2.15;1.38;;;;;;;;;;5066603;28;20057;-67
2023/07/15 01:48:12;;;;;;;2.80;1.20;;;;;;;;;;5068733;28;20051;-69
2023/07/15 01:50:37;;;;;;;2.28;1.30;;;;;;;;;;5070904;28;20487;-68
2023/07/15 01:53:02;;;;;;;2.10;1.42;;;;;;;;;;5070095;28;20048;-68
2023/07/15 01:55:28;;;;;;;2.47;1.15;;;;;;;;;;5070386;28;20098;-68
2023/07/15 01:57:53;;;;;;;2.33;1.10;;;;;;;;;;5052508;28;20035;-67
2023/07/15 02:00:20;;;;;;;3.08;1.30;;;;;;;;;;5051930;28;20604;-65
2023/07/15 02:02:46;;;;;;;5.28;1.27;;;;;;;;;;5070683;28;20033;-68
2023/07/15 02:05:11;;;;;;;4.38;1.45;;;;;;;;;;5051740;28;20037;-67
2023/07/15 02:07:36;;;;;;;3.33;1.17;;;;;;;;;;5070589;28;20112;-66
2023/07/15 02:10:02;;;;;;;1.75;1.00;;;;;;;;;;5069780;28;20032;-68
2023/07/15 02:12:28;;;;;;;2.50;1.30;;;;;;;;;;5070568;28;20091;-67
2023/07/15 02:14:53;;;;;;;3.33;1.08;;;;;;;;;;5070379;28;20120;-68
2023/07/15 02:17:22;;;;;;;3.03;1.65;;;;;;;;;;5068372;28;20048;-66
2023/07/15 02:19:48;;;;;;;4.25;1.35;;;;;;;;;;5070240;28;20158;-67
2023/07/15 02:22:13;;;;;;;4.60;1.42;;;;;;;;;;5069756;28;20182;-67
2023/07/15 02:24:38;;;;;;;1.48;1.10;;;;;;;;;;5035527;28;20033;-65
2023/07/15 02:27:04;;;;;;;3.80;1.85;;;;;;;;;;5069537;28;20067;-70
2023/07/15 02:29:30;;;;;;;4.47;1.15;;;;;;;;;;5070174;28;20625;-66
2023/07/15 02:31:55;;;;;;;4.82;1.35;;;;;;;;;;5035426;28;20047;-65
2023/07/15 02:34:21;;;;;;;4.13;1.25;;;;;;;;;;5069507;28;20044;-68
2023/07/15 02:36:47;;;;;;;2.42;1.30;;;;;;;;;;5069751;28;20118;-66
2023/07/15 02:39:13;;;;;;;5.93;1.55;;;;;;;;;;5069505;28;20047;-68
2023/07/15 02:41:38;;;;;;;2.03;1.35;;;;;;;;;;5051768;28;20032;-66
2023/07/15 02:44:03;;;;;;;1.73;1.20;;;;;;;;;;5069277;28;20542;-66
2023/07/15 02:46:29;;;;;;;2.08;1.10;;;;;;;;;;5069860;28;20032;-66
2023/07/15 02:48:54;;;;;;;5.53;1.50;;;;;;;;;;5051772;28;20127;-68
2023/07/15 02:51:19;;;;;;;2.50;1.20;;;;;;;;;;5051198;28;20051;-67
2023/07/15 02:53:47;;;;;;;4.40;1.50;;;;;;;;;;5069682;28;20415;-66
2023/07/15 02:56:12;;;;;;;1.85;1.10;;;;;;;;;;5051207;28;20055;-66
2023/07/15 02:58:38;;;;;;;2.30;0.90;;;;;;;;;;5051053;28;20028;-66
2023/07/15 03:01:04;;;;;;;1.75;1.20;;;;;;;;;;5068771;28;20040;-66
2023/07/15 03:03:29;;;;;;;6.25;1.17;;;;;;;;;;5069420;28;20093;-68
2023/07/15 03:05:54;;;;;;;2.30;1.35;;;;;;;;;;5069222;28;20071;-66
2023/07/15 03:08:20;;;;;;;2.42;1.38;;;;;;;;;;5068913;28;20048;-68
2023/07/15 03:10:46;;;;;;;2.92;1.25;;;;;;;;;;5051184;28;20592;-66
2023/07/15 03:13:11;;;;;;;3.72;1.10;;;;;;;;;;5068881;28;20179;-69
2023/07/15 03:15:37;;;;;;;1.65;1.52;;;;;;;;;;5051268;28;20528;-68
2023/07/15 03:18:03;;;;;;;2.33;1.15;;;;;;;;;;5050711;28;20037;-68
2023/07/15 03:20:29;;;;;;;2.58;1.27;;;;;;;;;;5069096;28;20050;-67
2023/07/15 03:22:55;;;;;;;4.85;1.33;;;;;;;;;;5051456;28;20082;-66
2023/07/15 03:25:20;;;;;;;1.33;1.10;;;;;;;;;;5068341;28;20045;-67
2023/07/15 03:27:46;;;;;;;5.93;1.42;;;;;;;;;;5069040;28;20186;-68
2023/07/15 03:30:12;;;;;;;3.08;1.20;;;;;;;;;;5050266;28;20064;-68
2023/07/15 03:32:39;;;;;;;2.85;1.30;;;;;;;;;;5050815;28;20033;-66
2023/07/15 03:35:05;;;;;;;2.58;1.13;;;;;;;;;;5068333;28;20045;-66
2023/07/15 03:37:31;;;;;;;1.42;0.90;;;;;;;;;;5050879;28;20514;-66
2023/07/15 03:39:57;;;;;;;2.45;1.25;;;;;;;;;;5068644;28;20032;-67
2023/07/15 03:42:23;;;;;;;3.47;1.20;;;;;;;;;;5068396;28;20037;-67
2023/07/15 03:44:48;;;;;;;3.08;1.00;;;;;;;;;;5068517;28;20036;-68
2023/07/15 03:47:13;;;;;;;2.45;1.20;;;;;;;;;;5049943;28;20052;-68
2023/07/15 03:49:39;;;;;;;1.48;1.15;;;;;;;;;;5068686;28;20063;-66
2023/07/15 03:52:04;;;;;;;2.10;1.20;;;;;;;;;;5049974;28;20139;-67
2023/07/15 03:54:30;;;;;;;1.15;0.90;;;;;;;;;;5050678;28;20551;-68
2023/07/15 03:56:56;;;;;;;3.20;1.23;;;;;;;;;;5050354;28;20040;-66
2023/07/15 03:59:21;;;;;;;1.27;1.00;;;;;;;;;;5067888;28;20032;-66
2023/07/15 04:01:47;;;;;;;3.20;1.35;;;;;;;;;;5068305;28;20387;-67
2023/07/15 04:04:13;;;;;;;2.85;1.45;;;;;;;;;;5067736;28;20036;-67
2023/07/15 04:06:38;;;;;;;5.60;1.35;;;;;;;;;;5068305;28;20051;-67
2023/07/15 04:09:05;;;;;;;1.25;1.10;;;;;;;;;;5067636;28;20040;-66
2023/07/15 04:11:31;;;;;;;1.75;1.10;;;;;;;;;;5049638;28;20059;-65
2023/07/15 04:13:56;;;;;;;1.75;1.00;;;;;;;;;;5050059;28;20040;-67
2023/07/15 04:16:22;;;;;;;2.72;1.10;;;;;;;;;;5067304;28;20119;-66
2023/07/15 04:18:47;;;;;;;2.78;1.40;;;;;;;;;;5068010;28;20044;-65
2023/07/15 04:21:12;;;;;;;1.70;1.45;;;;;;;;;;5049770;28;20051;-65
2023/07/15 04:23:38;;;;;;;6.57;1.00;;;;;;;;;;5067933;28;20127;-69
2023/07/15 04:26:03;;;;;;;3.15;0.90;;;;;;;;;;5067086;28;20044;-67
2023/07/15 04:28:28;;;;;;;1.40;1.08;;;;;;;;;;5067690;28;20044;-66
2023/07/15 04:30:53;;;;;;;6.63;1.30;;;;;;;;;;5067945;28;20044;-65
2023/07/15 04:33:19;;;;;;;2.08;1.35;;;;;;;;;;5049338;28;20044;-66
2023/07/15 04:35:44;;;;;;;2.90;1.25;;;;;;;;;;5067854;28;20548;-67
2023/07/15 04:38:10;;;;;;;2.22;1.08;;;;;;;;;;5049146;28;20495;-66
2023/07/15 04:40:35;;;;;;;1.05;0.95;;;;;;;;;;5049536;28;20040;-66
2023/07/15 04:43:01;;;;;;;2.03;0.90;;;;;;;;;;5067045;28;20052;-70
2023/07/15 04:45:26;;;;;;;1.70;1.00;;;;;;;;;;5067373;28;20048;-65
2023/07/15 04:47:52;;;;;;;3.85;1.45;;;;;;;;;;5055616;28;20059;-67
2023/07/15 04:50:17;;;;;;;1.95;1.13;;;;;;;;;;5066798;28;20495;-66
2023/07/15 04:52:42;;;;;;;1.30;1.00;;;;;;;;;;5049146;28;20491;-66
2023/07/15 04:55:09;;;;;;;1.98;1.17;;;;;;;;;;5067053;28;20071;-66
2023/07/15 04:57:34;;;;;;;1.33;0.90;;;;;;;;;;5067140;28;20047;-68
2023/07/15 04:59:59;;;;;;;3.80;1.23;;;;;;;;;;5067485;28;20459;-67
2023/07/15 05:02:24;;;;;;;3.33;1.10;;;;;;;;;;5066724;28;20552;-66
2023/07/15 05:04:50;;;;;;;1.98;1.02;;;;;;;;;;5067337;28;20050;-65
2023/07/15 05:07:15;;;;;;;1.58;0.95;;;;;;;;;;5066782;28;20037;-66
2023/07/15 05:09:40;;;;;;;4.72;1.00;;;;;;;;;;5049336;28;20040;-68
2023/07/15 05:12:06;;;;;;;1.50;0.98;;;;;;;;;;5066392;28;20118;-67
2023/07/15 05:14:32;;;;;;;1.25;0.93;;;;;;;;;;5049108;28;20105;-67
2023/07/15 05:16:58;;;;;;;2.95;1.08;;;;;;;;;;5067030;28;20070;-66
2023/07/15 05:19:24;;;;;;;0.77;0.70;;;;;;;;;;5070618;28;20040;-68
2023/07/15 05:21:49;;;;;;;9.00;1.50;;;;;;;;;;5065375;28;20040;-68
2023/07/15 05:24:15;;;;;;;5.93;1.00;;;;;;;;;;5086328;28;20091;-66
2023/07/15 05:26:40;;;;;;;2.60;1.17;;;;;;;;;;5084039;28;20507;-66
2023/07/15 05:29:07;;;;;;;3.28;1.20;;;;;;;;;;5085580;28;20091;-69
2023/07/15 05:31:33;;;;;;;2.15;1.10;;;;;;;;;;5084809;28;20043;-67
2023/07/15 05:33:58;;;;;;;8.85;1.83;;;;;;;;;;5085089;28;20119;-67
2023/07/15 05:36:23;;;;;;;2.20;1.40;;;;;;;;;;5086297;28;20044;-71
2023/07/15 05:38:49;;;;;;;3.60;1.45;;;;;;;;;;5107054;28;20039;-68
2023/07/15 05:41:14;;;;;;;5.57;1.77;;;;;;;;;;5091358;28;20044;-67
2023/07/15 05:43:39;;;;;;;7.47;1.63;;;;;;;;;;5086761;28;20039;-67
2023/07/15 05:46:04;;;;;;;12.55;3.58;;;;;;;;;;5084639;28;20463;-67
2023/07/15 05:48:30;;;;;;;9.88;1.70;;;;;;;;;;5085757;28;20036;-65
2023/07/15 05:50:55;;;;;;;5.05;1.80;;;;;;;;;;5065338;28;20131;-68
2023/07/15 05:53:20;;;;;;;4.53;1.88;;;;;;;;;;5085887;28;20044;-67
2023/07/15 05:55:46;;;;;;;12.13;3.42;;;;;;;;;;5086401;28;20350;-67
2023/07/15 05:58:11;;;;;;;3.30;1.52;;;;;;;;;;5085804;28;20131;-69
2023/07/15 06:00:38;;;;;;;6.70;2.88;;;;;;;;;;5086510;28;20044;-68
2023/07/15 06:03:03;;;;;;;4.78;2.00;;;;;;;;;;5084524;28;20140;-65
2023/07/15 06:05:29;;;;;;;9.10;1.88;;;;;;;;;;5098016;28;20036;-67
2023/07/15 06:07:54;;;;;;;3.85;1.58;;;;;;;;;;5067883;28;20151;-63
2023/07/15 06:10:19;;;;;;;8.23;1.40;;;;;;;;;;5084382;28;20383;-64
2023/07/15 06:12:45;;;;;;;6.68;2.33;;;;;;;;;;5068057;28;20475;-67
2023/07/15 06:15:10;;;;;;;8.73;2.47;;;;;;;;;;5099948;28;20048;-65
2023/07/15 06:17:35;;;;;;;6.53;1.83;;;;;;;;;;5086202;28;20409;-67
2023/07/15 06:20:01;;;;;;;14.50;2.38;;;;;;;;;;5067606;28;20040;-66
2023/07/15 06:22:26;;;;;;;5.45;1.50;;;;;;;;;;5097159;28;20045;-64
2023/07/15 06:24:51;;;;;;;20.15;2.85;;;;;;;;;;5101813;28;20711;-68
2023/07/15 06:27:17;;;;;;;21.42;3.03;;;;;;;;;;5083748;28;20514;-67
2023/07/15 06:29:43;;;;;;;13.00;1.60;;;;;;;;;;5066133;28;20410;-65
2023/07/15 06:32:09;;;;;;;4.65;1.40;;;;;;;;;;5085557;28;20044;-64
2023/07/15 06:34:34;;;;;;;7.88;1.50;;;;;;;;;;5070639;28;20036;-66
2023/07/15 06:36:59;;;;;;;10.30;2.08;;;;;;;;;;5071472;28;20458;-69
2023/07/15 06:39:25;;;;;;;12.32;1.60;;;;;;;;;;5089483;28;20152;-67
2023/07/15 06:41:51;;;;;;;10.95;1.40;;;;;;;;;;5089051;28;20047;-64
2023/07/15 06:44:17;;;;;;;7.28;1.58;;;;;;;;;;5069691;28;20036;-66
2023/07/15 06:46:42;;;;;;;8.02;1.63;;;;;;;;;;5069808;28;20039;-68
2023/07/15 06:49:07;;;;;;;4.70;1.50;;;;;;;;;;5089384;28;20631;-67
2023/07/15 06:51:33;;;;;;;4.90;1.23;;;;;;;;;;5089139;28;20185;-65
2023/07/15 06:53:58;;;;;;;11.13;1.50;;;;;;;;;;5071814;28;20101;-65
2023/07/15 06:56:23;;;;;;;11.80;1.88;;;;;;;;;;5089613;28;20047;-67
2023/07/15 06:58:49;;;;;;;5.30;1.50;;;;;;;;;;5089837;28;20689;-66
2023/07/15 07:01:14;;;;;;;6.30;1.45;;;;;;;;;;5089245;28;20052;-67
2023/07/15 07:03:39;;;;;;;4.18;1.45;;;;;;;;;;5071185;28;20058;-64
2023/07/15 07:06:04;;;;;;;8.43;1.50;;;;;;;;;;5091083;28;20085;-66
2023/07/15 07:08:30;;;;;;;5.53;1.40;;;;;;;;;;5110061;28;20509;-67
2023/07/15 07:10:55;;;;;;;7.65;1.10;;;;;;;;;;5109875;28;20042;-67
2023/07/15 07:13:20;;;;;;;8.77;1.30;;;;;;;;;;5090839;28;20047;-65
2023/07/15 07:15:47;;;;;;;2.75;1.20;;;;;;;;;;5109597;28;20462;-65
2023/07/15 07:18:13;;;;;;;3.67;1.45;;;;;;;;;;5090917;28;20039;-65
2023/07/15 07:20:38;;;;;;;8.38;1.60;;;;;;;;;;5091354;28;20028;-63
2023/07/15 07:23:04;;;;;;;6.28;1.70;;;;;;;;;;5109058;28;20051;-67
2023/07/15 07:25:29;;;;;;;3.88;1.83;;;;;;;;;;5109845;28;20378;-64
2023/07/15 07:27:54;;;;;;;1.75;1.08;;;;;;;;;;5109414;28;20490;-65
2023/07/15 07:30:20;;;;;;;5.68;1.40;;;;;;;;;;5109350;28;20063;-64
2023/07/15 07:32:45;;;;;;;4.43;1.40;;;;;;;;;;5109776;28;20124;-68
2023/07/15 07:35:10;;;;;;;6.90;2.00;;;;;;;;;;5109077;28;20095;-67
2023/07/15 07:37:36;;;;;;;6.22;1.38;;;;;;;;;;5109498;28;20200;-66
2023/07/15 07:40:01;;;;;;;7.07;1.70;;;;;;;;;;5109450;28;20214;-65
2023/07/15 07:42:26;;;;;;;1.17;0.85;;;;;;;;;;5108759;28;20725;-68
2023/07/15 07:44:54;;;;;;;4.63;1.10;;;;;;;;;;5109296;28;20039;-67
2023/07/15 07:47:19;;;;;;;1.90;1.00;;;;;;;;;;5090127;28;20040;-67
2023/07/15 07:49:45;;;;;;;5.18;1.02;;;;;;;;;;5109144;28;20050;-65
2023/07/15 07:52:10;;;;;;;4.28;1.48;;;;;;;;;;5108755;28;20093;-65
2023/07/15 07:54:35;;;;;;;4.40;1.48;;;;;;;;;;5109263;28;20553;-66
2023/07/15 07:57:01;;;;;;;5.80;1.48;;;;;;;;;;5108821;28;20073;-68
2023/07/15 07:59:27;;;;;;;2.85;0.93;;;;;;;;;;5108647;28;20047;-65
2023/07/15 08:01:52;;;;;;;5.68;1.35;;;;;;;;;;5090818;28;20827;-69
2023/07/15 08:04:17;;;;;;;4.20;1.10;;;;;;;;;;5108267;28;20474;-66
2023/07/15 08:06:42;;;;;;;4.45;1.27;;;;;;;;;;5108634;28;20042;-67
2023/07/15 08:09:08;;;;;;;5.32;1.40;;;;;;;;;;5108436;28;20096;-63
2023/07/15 08:11:33;;;;;;;4.70;1.20;;;;;;;;;;5108999;28;20458;-65
2023/07/15 08:13:58;;;;;;;3.35;1.20;;;;;;;;;;5108823;28;20043;-66
2023/07/15 08:16:28;;;;;;;4.32;1.52;;;;;;;;;;5108164;28;20054;-66
2023/07/15 08:18:53;;;;;;;1.73;0.98;;;;;;;;;;5108533;28;20127;-65
2023/07/15 08:21:18;;;;;;;4.55;1.40;;;;;;;;;;5108298;28;20047;-64
2023/07/15 08:23:43;;;;;;;1.20;0.95;;;;;;;;;;5090054;28;20108;-65
2023/07/15 08:26:09;;;;;;;1.88;1.08;;;;;;;;;;5107670;28;20031;-64
2023/07/15 08:28:34;;;;;;;2.13;1.13;;;;;;;;;;5108094;28;20034;-67
2023/07/15 08:30:59;;;;;;;2.60;1.05;;;;;;;;;;5108415;28;20051;-68
2023/07/15 08:33:25;;;;;;;2.17;1.45;;;;;;;;;;5107673;28;20552;-64
2023/07/15 08:35:50;;;;;;;1.90;1.17;;;;;;;;;;5108199;28;20069;-64
2023/07/15 08:38:15;;;;;;;1.70;1.08;;;;;;;;;;5089508;28;20800;-67
2023/07/15 08:40:43;;;;;;;2.47;1.10;;;;;;;;;;5108067;28;20035;-69
2023/07/15 08:43:09;;;;;;;1.97;1.13;;;;;;;;;;5107594;28;20054;-66
2023/07/15 08:45:35;;;;;;;1.95;1.00;;;;;;;;;;5108163;28;20032;-64
2023/07/15 08:48:01;;;;;;;1.60;1.13;;;;;;;;;;5107349;28;20070;-68
2023/07/15 08:50:28;;;;;;;2.22;1.00;;;;;;;;;;5107949;28;20188;-64
2023/07/15 08:52:54;;;;;;;4.15;1.23;;;;;;;;;;5089776;28;20050;-67
2023/07/15 08:55:20;;;;;;;2.55;1.00;;;;;;;;;;5107085;28;20039;-65
2023/07/15 08:57:45;;;;;;;2.35;1.00;;;;;;;;;;5072440;28;20496;-65
2023/07/15 09:00:12;;;;;;;3.40;1.17;;;;;;;;;;5088658;28;20051;-64
2023/07/15 09:02:38;;;;;;;2.45;1.35;;;;;;;;;;5107523;28;20035;-64
2023/07/15 09:05:09;;;;;;;2.13;1.27;;;;;;;;;;5072166;28;20086;-65
2023/07/15 09:07:50;;;;;;;2.72;1.25;;;;;;;;;;5107269;28;20039;-68
2023/07/15 09:10:16;;;;;;;5.32;1.23;;;;;;;;;;5107537;28;20077;-65
2023/07/15 09:12:46;;;;;;;1.90;1.40;;;;;;;;;;5107675;28;20127;-64
2023/07/15 09:15:12;;;;;;;2.17;1.05;;;;;;;;;;5089145;28;20035;-67
2023/07/15 09:17:38;;;;;;;3.20;1.08;;;;;;;;;;5107569;28;20658;-64
2023/07/15 09:20:13;;;;;;;1.48;0.95;;;;;;;;;;5089698;28;20069;-66
2023/07/15 09:22:39;;;;;;;1.73;1.10;;;;;;;;;;5107179;28;20482;-65
2023/07/15 09:25:05;;;;;;;1.27;0.77;;;;;;;;;;5088768;28;20044;-65
2023/07/15 09:27:30;;;;;;;1.58;1.08;;;;;;;;;;5088923;28;20051;-68
2023/07/15 09:29:55;;;;;;;2.70;1.20;;;;;;;;;;5107845;28;20798;-64
2023/07/15 09:32:22;;;;;;;3.92;1.17;;;;;;;;;;5106891;28;20502;-64
2023/07/15 09:34:52;;;;;;;1.67;0.95;;;;;;;;;;5107573;28;20054;-63
2023/07/15 09:37:27;;;;;;;1.67;1.13;;;;;;;;;;5106709;28;20043;-66
2023/07/15 09:39:58;;;;;;;2.10;0.90;;;;;;;;;;5089274;28;20068;-66
2023/07/15 09:42:26;;;;;;;3.80;1.15;;;;;;;;;;5087966;28;20035;-65
2023/07/15 09:44:52;;;;;;;2.25;0.88;;;;;;;;;;5107454;28;20036;-67
2023/07/15 09:47:17;;;;;;;3.03;1.27;;;;;;;;;;5106577;28;20602;-67
2023/07/15 09:49:42;;;;;;;2.03;1.00;;;;;;;;;;5089040;28;20035;-65
2023/07/15 09:52:07;;;;;;;1.95;1.10;;;;;;;;;;5088247;28;20178;-65
2023/07/15 09:54:34;;;;;;;3.35;0.90;;;;;;;;;;5107048;28;20039;-63
2023/07/15 09:57:04;;;;;;;2.22;1.40;;;;;;;;;;5088838;28;20275;-63
2023/07/15 09:59:34;;;;;;;2.05;1.20;;;;;;;;;;5088633;28;20035;-67
2023/07/15 10:02:05;;;;;;;1.92;0.90;;;;;;;;;;5089070;28;20032;-64
2023/07/15 10:04:35;;;;;;;2.03;1.30;;;;;;;;;;5088742;28;20418;-65
2023/07/15 10:07:02;;;;;;;1.27;0.70;;;;;;;;;;5107264;28;20359;-66
2023/07/15 10:09:27;;;;;;;1.73;1.00;;;;;;;;;;5091475;28;20046;-65
2023/07/15 10:11:54;;;;;;;2.63;1.08;;;;;;;;;;5092296;28;20032;-64
2023/07/15 10:14:20;;;;;;;1.67;1.10;;;;;;;;;;5092053;28;20512;-65
2023/07/15 10:16:45;;;;;;;3.35;1.48;;;;;;;;;;5092596;28;20031;-65
2023/07/15 10:19:50;;;;;;;1.90;0.80;;;;;;;;;;5110279;28;20043;-63
2023/07/15 10:22:21;;;;;;;1.42;1.00;;;;;;;;;;5091164;28;20055;-63
2023/07/15 10:24:53;;;;;;;1.48;1.23;;;;;;;;;;5110763;28;20035;-66
2023/07/15 10:27:19;;;;;;;2.67;1.10;;;;;;;;;;5110231;28;20355;-63
2023/07/15 10:29:44;;;;;;;1.52;0.95;;;;;;;;;;5110940;28;20043;-65
2023/07/15 10:32:14;;;;;;;1.83;1.17;;;;;;;;;;5110545;28;20127;-67
2023/07/15 10:34:43;;;;;;;3.90;1.10;;;;;;;;;;5110774;28;20588;-64
2023/07/15 10:37:10;;;;;;;2.42;1.25;;;;;;;;;;5091592;28;20564;-63
2023/07/15 10:39:35;;;;;;;2.50;1.30;;;;;;;;;;5110695;28;20111;-64
2023/07/15 10:42:17;;;;;;;4.63;1.10;;;;;;;;;;5075181;28;20545;-65
2023/07/15 10:44:45;;;;;;;2.10;1.27;;;;;;;;;;5091909;28;20094;-64
2023/07/15 10:47:14;;;;;;;1.00;0.82;;;;;;;;;;5109715;28;20471;-66
2023/07/15 10:49:41;;;;;;;2.78;1.20;;;;;;;;;;5110576;28;20097;-65
2023/07/15 10:52:06;;;;;;;2.20;1.20;;;;;;;;;;5109851;28;20500;-64
2023/07/15 10:54:36;;;;;;;2.50;0.98;;;;;;;;;;5109819;28;20036;-67
2023/07/15 10:57:15;;;;;;;2.30;1.13;;;;;;;;;;5091465;28;20060;-64
2023/07/15 10:59:41;;;;;;;;;;;;;;;;;;5092509;28;20046;-67
2023/07/15 11:02:06;;;;;;;2.92;0.82;;;;;;;;;;5091489;28;20018;-69
2023/07/15 11:04:33;;;;;;;1.75;1.02;;;;;;;;;;5110370;28;20127;-67
2023/07/15 11:07:04;;;;;;;2.65;0.80;;;;;;;;;;5109923;28;20504;-67
2023/07/15 11:09:29;;;;;;;1.30;1.10;;;;;;;;;;5091358;28;20039;-64
2023/07/15 11:11:55;;;;;;;1.75;1.10;;;;;;;;;;5091481;28;20055;-67
2023/07/15 11:14:22;;;;;;;1.98;1.15;;;;;;;;;;5090999;28;20555;-64
2023/07/15 11:16:58;;;;;;;2.63;1.08;;;;;;;;;;5091490;28;20745;-64
2023/07/15 11:19:26;;;;;;;2.67;0.90;;;;;;;;;;5073767;28;20550;-66
2023/07/15 11:21:51;;;;;;;1.23;1.10;;;;;;;;;;5091568;28;20027;-64
2023/07/15 11:24:17;;;;;;;1.73;0.90;;;;;;;;;;5109029;28;20039;-66
2023/07/15 11:26:43;;;;;;;1.70;0.90;;;;;;;;;;5090747;28;20031;-64
2023/07/15 11:29:22;;;;;;;1.45;1.05;;;;;;;;;;5109397;28;20067;-66
2023/07/15 11:31:52;;;;;;;1.45;1.10;;;;;;;;;;5091036;28;20085;-65
2023/07/15 11:34:18;;;;;;;1.50;0.90;;;;;;;;;;5090726;28;20378;-66
2023/07/15 11:36:44;;;;;;;1.20;0.82;;;;;;;;;;5109450;28;20036;-64
2023/07/15 11:39:11;;;;;;;1.30;0.80;;;;;;;;;;5109069;28;20383;-65
2023/07/15 11:41:37;;;;;;;2.00;1.17;;;;;;;;;;5091437;28;20386;-63
2023/07/15 11:44:12;;;;;;;1.55;0.98;;;;;;;;;;5090756;28;20039;-63
2023/07/15 11:46:38;;;;;;;1.15;0.70;;;;;;;;;;5109350;28;20039;-64
2023/07/15 11:49:04;;;;;;;2.67;1.08;;;;;;;;;;5090511;28;20057;-64
2023/07/15 11:51:36;;;;;;;2.00;0.93;;;;;;;;;;5109340;28;20039;-66
2023/07/15 11:54:02;;;;;;;7.32;2.45;;;;;;;;;;5108406;28;20050;-67
2023/07/15 11:56:41;;;;;;;2.13;1.25;;;;;;;;;;5090137;28;20043;-67
2023/07/15 11:59:08;;;;;;;1.77;1.20;;;;;;;;;;5090102;28;20044;-65
2023/07/15 12:01:33;;;;;;;1.92;1.38;;;;;;;;;;5106466;28;20039;-64
2023/07/15 12:03:59;;;;;;;1.90;1.05;;;;;;;;;;5087150;28;20058;-67
2023/07/15 12:06:26;;;;;;;2.35;1.35;;;;;;;;;;5087205;28;20043;-64
2023/07/15 12:09:12;;;;;;;1.73;1.00;;;;;;;;;;5069613;28;20036;-63
2023/07/15 12:11:37;;;;;;;2.40;1.50;;;;;;;;;;5069065;28;20039;-65
2023/07/15 12:14:04;;;;;;;2.33;1.10;;;;;;;;;;5068949;28;20043;-67
2023/07/15 12:16:32;;;;;;;1.20;0.90;;;;;;;;;;5069022;28;20083;-64
2023/07/15 12:18:59;;;;;;;3.70;2.58;;;;;;;;;;5069522;28;20063;-64
2023/07/15 12:21:25;;;;;;;3.83;1.10;;;;;;;;;;5069032;28;20529;-65
2023/07/15 12:23:50;;;;;;;1.85;1.33;;;;;;;;;;5016627;28;20053;-67
2023/07/15 12:26:17;;;;;;;4.22;1.38;;;;;;;;;;5050325;28;20049;-66
2023/07/15 12:28:42;;;;;;;1.88;1.00;;;;;;;;;;5048549;28;20052;-66
2023/07/15 12:31:08;;;;;;;1.63;1.00;;;;;;;;;;5048085;28;20113;-65
2023/07/15 12:33:33;;;;;;;1.42;1.05;;;;;;;;;;5067201;28;20128;-64
2023/07/15 12:35:58;;;;;;;3.85;1.50;;;;;;;;;;5067306;28;20079;-64
2023/07/15 12:38:24;;;;;;;1.35;1.10;;;;;;;;;;5048215;28;20120;-67
2023/07/15 12:40:49;;;;;;;1.65;1.35;;;;;;;;;;5066106;28;20037;-65
2023/07/15 12:43:14;;;;;;;2.83;1.50;;;;;;;;;;5066000;28;20530;-63
2023/07/15 12:45:41;;;;;;;2.33;1.50;;;;;;;;;;5066739;28;20051;-64
2023/07/15 12:48:06;;;;;;;1.80;1.40;;;;;;;;;;5066609;28;20044;-70
2023/07/15 12:50:31;;;;;;;2.63;1.52;;;;;;;;;;5066454;28;20047;-67
2023/07/15 12:52:56;;;;;;;4.32;1.77;;;;;;;;;;5049173;28;20395;-64
2023/07/15 12:55:22;;;;;;;5.90;2.45;;;;;;;;;;4995799;28;20148;-67
2023/07/15 12:57:47;;;;;;;7.18;2.00;;;;;;;;;;5031842;28;20040;-63
2023/07/15 13:00:14;;;;;;;6.15;1.60;;;;;;;;;;5048645;28;20411;-66
2023/07/15 13:02:40;;;;;;;2.30;1.77;;;;;;;;;;5030502;28;20036;-66
2023/07/15 13:05:05;;;;;;;2.72;1.90;;;;;;;;;;5065847;28;20048;-64
2023/07/15 13:07:30;;;;;;;1.92;1.50;;;;;;;;;;5066677;28;20062;-65
2023/07/15 13:09:56;;;;;;;3.85;1.75;;;;;;;;;;5067299;28;20376;-64
2023/07/15 13:12:21;;;;;;;4.53;1.70;;;;;;;;;;5066588;28;20075;-67
2023/07/15 13:14:46;;;;;;;2.65;1.45;;;;;;;;;;5067185;28;20037;-64
2023/07/15 13:17:12;;;;;;;3.17;1.55;;;;;;;;;;5066385;28;20112;-64
2023/07/15 13:19:37;;;;;;;5.05;1.65;;;;;;;;;;5049030;28;20455;-67
2023/07/15 13:22:02;;;;;;;5.53;1.60;;;;;;;;;;5066247;28;20471;-67
2023/07/15 13:24:28;;;;;;;4.80;1.42;;;;;;;;;;5048991;28;20060;-64
2023/07/15 13:26:53;;;;;;;2.25;1.75;;;;;;;;;;5066828;28;20526;-65
2023/07/15 13:29:18;;;;;;;3.63;1.50;;;;;;;;;;5066786;28;20045;-63
2023/07/15 13:31:44;;;;;;;2.03;1.75;;;;;;;;;;5066772;28;20047;-68
2023/07/15 13:34:09;;;;;;;2.25;1.70;;;;;;;;;;5047867;28;20052;-64
2023/07/15 13:36:35;;;;;;;4.60;1.63;;;;;;;;;;5048730;28;20502;-67
2023/07/15 13:39:00;;;;;;;2.65;1.65;;;;;;;;;;5048226;28;20044;-67
2023/07/15 13:41:25;;;;;;;3.00;1.95;;;;;;;;;;5065898;28;20029;-66
2023/07/15 13:43:51;;;;;;;4.72;1.60;;;;;;;;;;5070230;28;20044;-66
2023/07/15 13:46:16;;;;;;;2.08;1.50;;;;;;;;;;5070379;28;20479;-64
2023/07/15 13:48:41;;;;;;;2.63;1.83;;;;;;;;;;5052841;28;20361;-64
2023/07/15 13:51:07;;;;;;;3.17;1.50;;;;;;;;;;5070528;28;20055;-66
2023/07/15 13:53:32;;;;;;;2.78;1.60;;;;;;;;;;5070769;28;20055;-65
2023/07/15 13:55:57;;;;;;;2.63;1.67;;;;;;;;;;5070752;28;20036;-66
2023/07/15 13:58:23;;;;;;;2.97;1.83;;;;;;;;;;5070282;28;20048;-64
2023/07/15 14:00:48;;;;;;;4.60;1.40;;;;;;;;;;5070735;28;20039;-67
2023/07/15 14:03:13;;;;;;;2.83;1.70;;;;;;;;;;5051784;28;20052;-66
2023/07/15 14:05:38;;;;;;;2.72;1.70;;;;;;;;;;5052190;28;20041;-65
2023/07/15 14:08:04;;;;;;;2.80;1.60;;;;;;;;;;5067611;28;20082;-61
2023/07/15 14:10:29;;;;;;;5.22;1.80;;;;;;;;;;5059600;28;20044;-64
2023/07/15 14:12:55;;;;;;;8.20;2.90;;;;;;;;;;5068880;28;20040;-67
2023/07/15 14:15:20;;;;;;;5.18;2.88;;;;;;;;;;5069421;28;20045;-63
2023/07/15 14:17:45;;;;;;;3.58;2.10;;;;;;;;;;5053067;28;20041;-64
2023/07/15 14:20:11;;;;;;;5.38;2.53;;;;;;;;;;5070195;28;20036;-66
2023/07/15 14:22:36;;;;;;;7.78;3.20;;;;;;;;;;5069085;28;20067;-62
2023/07/15 14:25:02;;;;;;;6.05;2.60;;;;;;;;;;5070795;28;20102;-63
2023/07/15 14:27:27;;;;;;;5.28;2.35;;;;;;;;;;5069975;28;20169;-63
2023/07/15 14:29:53;;;;;;;9.20;2.78;;;;;;;;;;5069935;28;20040;-63
2023/07/15 14:32:18;;;;;;;8.80;2.72;;;;;;;;;;5070029;28;20128;-67
2023/07/15 14:34:43;;;;;;;7.38;2.63;;;;;;;;;;5052420;28;20079;-64
2023/07/15 14:37:09;;;;;;;4.13;2.22;;;;;;;;;;5069478;28;20040;-63